sensor_id;sensor_type;location;lat;lon;timestamp;pressure;altitude;pressure_sealevel;temperature;humidity
39363;BME280;25088;43.238;23.110;2022-08-16T00:01:59;95912.09;;;20.29;85.17
39363;BME280;25088;43.238;23.110;2022-08-16T00:04:26;95915.34;;;20.22;84.79
39363;BME280;25088;43.238;23.110;2022-08-16T00:06:51;95892.13;;;20.06;84.60
39363;BME280;25088;43.238;23.110;2022-08-16T00:09:17;95907.22;;;20.17;84.71
39363;BME280;25088;43.238;23.110;2022-08-16T00:11:43;95915.19;;;20.19;84.99
39363;BME280;25088;43.238;23.110;2022-08-16T00:14:12;95923.19;;;20.20;84.92
39363;BME280;25088;43.238;23.110;2022-08-16T00:16:38;95926.28;;;20.19;84.95
39363;BME280;25088;43.238;23.110;2022-08-16T00:19:04;95923.69;;;20.13;84.57
39363;BME280;25088;43.238;23.110;2022-08-16T00:21:30;95920.75;;;20.19;83.99
39363;BME280;25088;43.238;23.110;2022-08-16T00:23:56;95929.22;;;20.22;83.99
39363;BME280;25088;43.238;23.110;2022-08-16T00:26:22;95924.16;;;20.24;82.49
39363;BME280;25088;43.238;23.110;2022-08-16T00:28:48;95922.34;;;20.28;82.03
39363;BME280;25088;43.238;23.110;2022-08-16T00:31:13;95921.88;;;20.26;80.71
39363;BME280;25088;43.238;23.110;2022-08-16T00:33:39;95929.66;;;20.33;80.85
39363;BME280;25088;43.238;23.110;2022-08-16T00:36:04;95915.16;;;20.27;80.68
39363;BME280;25088;43.238;23.110;2022-08-16T00:38:30;95908.16;;;20.30;79.68
39363;BME280;25088;43.238;23.110;2022-08-16T00:40:56;95922.28;;;20.46;79.94
39363;BME280;25088;43.238;23.110;2022-08-16T00:43:26;95933.81;;;20.56;78.82
39363;BME280;25088;43.238;23.110;2022-08-16T00:46:00;95927.38;;;20.35;79.87
39363;BME280;25088;43.238;23.110;2022-08-16T00:48:30;95925.94;;;20.67;78.67
39363;BME280;25088;43.238;23.110;2022-08-16T00:50:56;95931.41;;;20.46;83.09
39363;BME280;25088;43.238;23.110;2022-08-16T00:53:22;95924.28;;;20.28;85.06
39363;BME280;25088;43.238;23.110;2022-08-16T00:55:49;95922.28;;;19.99;86.47
39363;BME280;25088;43.238;23.110;2022-08-16T00:58:21;95929.66;;;19.95;87.74
39363;BME280;25088;43.238;23.110;2022-08-16T01:00:48;95927.88;;;19.90;88.05
39363;BME280;25088;43.238;23.110;2022-08-16T01:03:17;95934.06;;;19.87;86.48
39363;BME280;25088;43.238;23.110;2022-08-16T01:05:43;95926.25;;;19.80;86.64
39363;BME280;25088;43.238;23.110;2022-08-16T01:08:11;95938.44;;;19.88;86.21
39363;BME280;25088;43.238;23.110;2022-08-16T01:10:38;95940.13;;;19.80;87.21
39363;BME280;25088;43.238;23.110;2022-08-16T01:13:17;95943.34;;;19.91;86.61
39363;BME280;25088;43.238;23.110;2022-08-16T01:15:47;95935.50;;;19.93;86.64
39363;BME280;25088;43.238;23.110;2022-08-16T01:18:17;95927.53;;;19.92;85.28
39363;BME280;25088;43.238;23.110;2022-08-16T01:20:52;95924.41;;;19.93;86.47
39363;BME280;25088;43.238;23.110;2022-08-16T01:23:25;95928.66;;;19.99;85.71
39363;BME280;25088;43.238;23.110;2022-08-16T01:25:54;95913.63;;;20.09;84.91
39363;BME280;25088;43.238;23.110;2022-08-16T01:28:21;95920.63;;;20.15;84.66
39363;BME280;25088;43.238;23.110;2022-08-16T01:30:54;95924.00;;;20.21;84.77
39363;BME280;25088;43.238;23.110;2022-08-16T01:33:21;95927.56;;;20.30;83.11
39363;BME280;25088;43.238;23.110;2022-08-16T01:35:54;95924.88;;;20.42;83.86
39363;BME280;25088;43.238;23.110;2022-08-16T01:38:26;95905.97;;;20.44;82.34
39363;BME280;25088;43.238;23.110;2022-08-16T01:40:57;95921.59;;;20.78;82.00
39363;BME280;25088;43.238;23.110;2022-08-16T01:43:24;95936.34;;;21.21;78.90
39363;BME280;25088;43.238;23.110;2022-08-16T01:45:59;95941.28;;;21.57;77.27
39363;BME280;25088;43.238;23.110;2022-08-16T01:48:29;95946.06;;;22.02;72.61
39363;BME280;25088;43.238;23.110;2022-08-16T01:50:56;95942.47;;;22.47;69.48
39363;BME280;25088;43.238;23.110;2022-08-16T01:53:22;95935.69;;;22.93;66.64
39363;BME280;25088;43.238;23.110;2022-08-16T01:55:47;95927.72;;;23.60;62.75
39363;BME280;25088;43.238;23.110;2022-08-16T01:58:16;95939.03;;;24.07;61.53
39363;BME280;25088;43.238;23.110;2022-08-16T02:00:43;95953.69;;;24.20;60.20
39363;BME280;25088;43.238;23.110;2022-08-16T02:03:09;95952.09;;;24.35;60.01
39363;BME280;25088;43.238;23.110;2022-08-16T02:05:35;95946.28;;;24.40;60.00
39363;BME280;25088;43.238;23.110;2022-08-16T02:08:02;95961.59;;;24.46;60.43
39363;BME280;25088;43.238;23.110;2022-08-16T02:10:29;95966.28;;;24.42;60.50
39363;BME280;25088;43.238;23.110;2022-08-16T02:12:55;95959.88;;;24.41;61.57
39363;BME280;25088;43.238;23.110;2022-08-16T02:15:25;95979.13;;;24.46;60.45
39363;BME280;25088;43.238;23.110;2022-08-16T02:17:56;95980.13;;;24.38;58.98
39363;BME280;25088;43.238;23.110;2022-08-16T02:20:22;95983.19;;;24.49;58.14
39363;BME280;25088;43.238;23.110;2022-08-16T02:22:48;95992.66;;;24.44;58.36
39363;BME280;25088;43.238;23.110;2022-08-16T02:25:15;96011.31;;;24.28;60.95
39363;BME280;25088;43.238;23.110;2022-08-16T02:27:42;96035.66;;;24.15;62.63
39363;BME280;25088;43.238;23.110;2022-08-16T02:30:14;96040.63;;;23.94;61.40
39363;BME280;25088;43.238;23.110;2022-08-16T02:32:42;96052.66;;;23.45;64.56
39363;BME280;25088;43.238;23.110;2022-08-16T02:35:08;96063.66;;;22.68;67.25
39363;BME280;25088;43.238;23.110;2022-08-16T02:37:34;96021.81;;;21.78;71.21
39363;BME280;25088;43.238;23.110;2022-08-16T02:40:00;96057.44;;;21.63;74.80
39363;BME280;25088;43.238;23.110;2022-08-16T02:42:25;96038.84;;;21.34;82.94
39363;BME280;25088;43.238;23.110;2022-08-16T02:44:51;96042.69;;;20.83;90.23
39363;BME280;25088;43.238;23.110;2022-08-16T02:47:16;96049.19;;;20.40;94.99
39363;BME280;25088;43.238;23.110;2022-08-16T02:49:42;96032.00;;;19.91;95.85
39363;BME280;25088;43.238;23.110;2022-08-16T02:52:09;96037.69;;;19.86;95.16
39363;BME280;25088;43.238;23.110;2022-08-16T02:54:35;96034.13;;;19.68;97.32
39363;BME280;25088;43.238;23.110;2022-08-16T02:57:00;96046.34;;;19.76;96.96
39363;BME280;25088;43.238;23.110;2022-08-16T02:59:26;96024.66;;;19.86;95.23
39363;BME280;25088;43.238;23.110;2022-08-16T03:01:51;96017.50;;;19.85;95.53
39363;BME280;25088;43.238;23.110;2022-08-16T03:04:17;96024.78;;;20.07;94.73
39363;BME280;25088;43.238;23.110;2022-08-16T03:06:43;96020.34;;;20.24;98.05
39363;BME280;25088;43.238;23.110;2022-08-16T03:09:08;95987.16;;;19.98;99.48
39363;BME280;25088;43.238;23.110;2022-08-16T03:11:34;96004.75;;;20.02;100.00
39363;BME280;25088;43.238;23.110;2022-08-16T03:14:00;96012.09;;;20.06;100.00
39363;BME280;25088;43.238;23.110;2022-08-16T03:16:25;96010.63;;;20.00;100.00
39363;BME280;25088;43.238;23.110;2022-08-16T03:18:51;96013.25;;;19.97;100.00
39363;BME280;25088;43.238;23.110;2022-08-16T03:21:17;96004.75;;;19.93;100.00
39363;BME280;25088;43.238;23.110;2022-08-16T03:23:43;95996.66;;;19.79;99.54
39363;BME280;25088;43.238;23.110;2022-08-16T03:26:08;95962.28;;;19.80;99.66
39363;BME280;25088;43.238;23.110;2022-08-16T03:28:34;95989.63;;;19.91;96.20
39363;BME280;25088;43.238;23.110;2022-08-16T03:30:59;95980.34;;;19.95;96.52
39363;BME280;25088;43.238;23.110;2022-08-16T03:33:25;95989.44;;;20.04;94.45
39363;BME280;25088;43.238;23.110;2022-08-16T03:35:52;95993.47;;;20.16;89.93
39363;BME280;25088;43.238;23.110;2022-08-16T03:38:18;95990.97;;;20.31;95.07
39363;BME280;25088;43.238;23.110;2022-08-16T03:40:43;95983.72;;;20.09;98.72
39363;BME280;25088;43.238;23.110;2022-08-16T03:43:11;95966.31;;;20.00;98.38
39363;BME280;25088;43.238;23.110;2022-08-16T03:45:38;95956.91;;;19.75;100.00
39363;BME280;25088;43.238;23.110;2022-08-16T03:48:06;95937.53;;;19.49;100.00
39363;BME280;25088;43.238;23.110;2022-08-16T03:50:32;95942.91;;;19.37;100.00
39363;BME280;25088;43.238;23.110;2022-08-16T03:52:59;95946.00;;;19.27;100.00
39363;BME280;25088;43.238;23.110;2022-08-16T03:55:25;95941.28;;;19.36;100.00
39363;BME280;25088;43.238;23.110;2022-08-16T03:57:51;95939.16;;;19.33;100.00
39363;BME280;25088;43.238;23.110;2022-08-16T04:00:24;95944.69;;;19.33;100.00
39363;BME280;25088;43.238;23.110;2022-08-16T04:02:52;95962.78;;;19.30;100.00
39363;BME280;25088;43.238;23.110;2022-08-16T04:05:18;95960.31;;;19.20;100.00
39363;BME280;25088;43.238;23.110;2022-08-16T04:07:44;95963.41;;;19.19;100.00
39363;BME280;25088;43.238;23.110;2022-08-16T04:10:11;95960.97;;;19.26;100.00
39363;BME280;25088;43.238;23.110;2022-08-16T04:12:38;95965.03;;;19.28;100.00
39363;BME280;25088;43.238;23.110;2022-08-16T04:15:06;95967.00;;;19.28;100.00
39363;BME280;25088;43.238;23.110;2022-08-16T04:17:32;95970.41;;;19.33;100.00
39363;BME280;25088;43.238;23.110;2022-08-16T04:19:58;95964.88;;;19.33;100.00
39363;BME280;25088;43.238;23.110;2022-08-16T04:22:24;95963.41;;;19.45;100.00
39363;BME280;25088;43.238;23.110;2022-08-16T04:24:50;95953.31;;;19.57;100.00
39363;BME280;25088;43.238;23.110;2022-08-16T04:27:15;95972.88;;;19.70;100.00
39363;BME280;25088;43.238;23.110;2022-08-16T04:29:41;95974.16;;;19.81;100.00
39363;BME280;25088;43.238;23.110;2022-08-16T04:32:07;95960.44;;;19.93;100.00
39363;BME280;25088;43.238;23.110;2022-08-16T04:34:34;95963.50;;;20.09;100.00
39363;BME280;25088;43.238;23.110;2022-08-16T04:37:01;95967.72;;;20.15;100.00
39363;BME280;25088;43.238;23.110;2022-08-16T04:39:28;95985.31;;;20.19;100.00
39363;BME280;25088;43.238;23.110;2022-08-16T04:41:54;95973.09;;;20.11;100.00
39363;BME280;25088;43.238;23.110;2022-08-16T04:44:19;95983.47;;;20.32;100.00
39363;BME280;25088;43.238;23.110;2022-08-16T04:46:45;95979.69;;;20.45;100.00
39363;BME280;25088;43.238;23.110;2022-08-16T04:49:10;95982.97;;;20.47;100.00
39363;BME280;25088;43.238;23.110;2022-08-16T04:51:37;95947.88;;;20.43;100.00
39363;BME280;25088;43.238;23.110;2022-08-16T04:54:05;95968.53;;;20.62;99.65
39363;BME280;25088;43.238;23.110;2022-08-16T04:56:31;95971.00;;;20.64;98.03
39363;BME280;25088;43.238;23.110;2022-08-16T04:58:57;95970.34;;;20.58;98.09
39363;BME280;25088;43.238;23.110;2022-08-16T05:01:22;95971.81;;;20.64;97.64
39363;BME280;25088;43.238;23.110;2022-08-16T05:03:48;95974.22;;;20.66;97.33
39363;BME280;25088;43.238;23.110;2022-08-16T05:06:13;95967.34;;;20.72;98.62
39363;BME280;25088;43.238;23.110;2022-08-16T05:08:39;95961.78;;;20.72;97.53
39363;BME280;25088;43.238;23.110;2022-08-16T05:11:07;95976.25;;;20.86;97.96
39363;BME280;25088;43.238;23.110;2022-08-16T05:13:35;95976.19;;;20.95;97.83
39363;BME280;25088;43.238;23.110;2022-08-16T05:16:02;95978.59;;;21.05;96.70
39363;BME280;25088;43.238;23.110;2022-08-16T05:18:27;95980.50;;;21.13;96.55
39363;BME280;25088;43.238;23.110;2022-08-16T05:20:53;95981.69;;;21.33;93.80
39363;BME280;25088;43.238;23.110;2022-08-16T05:23:19;95975.72;;;21.44;93.27
39363;BME280;25088;43.238;23.110;2022-08-16T05:25:45;95974.75;;;21.60;93.50
39363;BME280;25088;43.238;23.110;2022-08-16T05:28:10;95955.91;;;21.66;93.37
39363;BME280;25088;43.238;23.110;2022-08-16T05:30:37;95960.16;;;21.84;94.10
39363;BME280;25088;43.238;23.110;2022-08-16T05:33:04;95964.81;;;21.92;92.57
39363;BME280;25088;43.238;23.110;2022-08-16T05:35:30;95971.63;;;22.16;92.73
39363;BME280;25088;43.238;23.110;2022-08-16T05:37:55;95968.31;;;22.35;90.66
39363;BME280;25088;43.238;23.110;2022-08-16T05:40:21;95960.69;;;22.56;89.87
39363;BME280;25088;43.238;23.110;2022-08-16T05:42:46;95954.31;;;22.68;85.47
39363;BME280;25088;43.238;23.110;2022-08-16T05:45:12;95953.25;;;22.85;87.53
39363;BME280;25088;43.238;23.110;2022-08-16T05:47:38;95959.28;;;23.11;87.01
39363;BME280;25088;43.238;23.110;2022-08-16T05:50:05;95956.94;;;23.26;85.09
39363;BME280;25088;43.238;23.110;2022-08-16T05:52:30;95947.28;;;23.47;84.98
39363;BME280;25088;43.238;23.110;2022-08-16T05:54:56;95952.69;;;23.68;85.85
39363;BME280;25088;43.238;23.110;2022-08-16T05:57:21;95918.19;;;23.73;86.25
39363;BME280;25088;43.238;23.110;2022-08-16T05:59:48;95950.72;;;24.13;84.32
39363;BME280;25088;43.238;23.110;2022-08-16T06:02:13;95948.41;;;24.31;82.44
39363;BME280;25088;43.238;23.110;2022-08-16T06:04:39;95954.66;;;24.40;78.73
39363;BME280;25088;43.238;23.110;2022-08-16T06:07:05;95951.59;;;24.61;78.10
39363;BME280;25088;43.238;23.110;2022-08-16T06:09:31;95959.22;;;24.95;78.88
39363;BME280;25088;43.238;23.110;2022-08-16T06:11:57;95945.19;;;25.08;76.71
39363;BME280;25088;43.238;23.110;2022-08-16T06:14:25;95958.34;;;25.42;75.72
39363;BME280;25088;43.238;23.110;2022-08-16T06:16:50;95957.78;;;25.72;75.40
39363;BME280;25088;43.238;23.110;2022-08-16T06:19:18;95964.22;;;25.92;73.79
39363;BME280;25088;43.238;23.110;2022-08-16T06:21:44;95955.56;;;26.20;70.96
39363;BME280;25088;43.238;23.110;2022-08-16T06:24:09;95961.63;;;26.45;69.71
39363;BME280;25088;43.238;23.110;2022-08-16T06:26:35;95946.78;;;26.64;68.59
39363;BME280;25088;43.238;23.110;2022-08-16T06:29:00;95953.53;;;27.09;70.86
39363;BME280;25088;43.238;23.110;2022-08-16T06:31:26;95959.19;;;27.39;63.76
39363;BME280;25088;43.238;23.110;2022-08-16T06:33:51;95943.56;;;27.68;64.35
39363;BME280;25088;43.238;23.110;2022-08-16T06:36:17;95944.75;;;27.97;62.73
39363;BME280;25088;43.238;23.110;2022-08-16T06:38:42;95937.19;;;28.35;55.26
39363;BME280;25088;43.238;23.110;2022-08-16T06:41:09;95939.13;;;28.71;53.07
39363;BME280;25088;43.238;23.110;2022-08-16T06:43:35;95946.72;;;29.12;52.44
39363;BME280;25088;43.238;23.110;2022-08-16T06:46:05;95942.25;;;29.66;52.40
39363;BME280;25088;43.238;23.110;2022-08-16T06:48:34;95936.81;;;30.12;51.14
39363;BME280;25088;43.238;23.110;2022-08-16T06:51:04;95928.47;;;30.51;46.03
39363;BME280;25088;43.238;23.110;2022-08-16T06:53:31;95934.19;;;30.94;47.92
39363;BME280;25088;43.238;23.110;2022-08-16T06:55:59;95926.13;;;31.03;48.57
39363;BME280;25088;43.238;23.110;2022-08-16T06:58:24;95933.31;;;31.51;44.52
39363;BME280;25088;43.238;23.110;2022-08-16T07:00:50;95929.66;;;31.61;42.97
39363;BME280;25088;43.238;23.110;2022-08-16T07:03:16;95913.03;;;31.95;44.01
39363;BME280;25088;43.238;23.110;2022-08-16T07:05:42;95913.66;;;32.31;42.55
39363;BME280;25088;43.238;23.110;2022-08-16T07:08:08;95918.19;;;32.14;42.36
39363;BME280;25088;43.238;23.110;2022-08-16T07:10:35;95930.66;;;32.28;43.51
39363;BME280;25088;43.238;23.110;2022-08-16T07:13:01;95923.94;;;32.66;42.85
39363;BME280;25088;43.238;23.110;2022-08-16T07:15:27;95915.63;;;33.01;40.44
39363;BME280;25088;43.238;23.110;2022-08-16T07:17:52;95928.63;;;33.36;38.21
39363;BME280;25088;43.238;23.110;2022-08-16T07:20:18;95930.09;;;33.55;37.40
39363;BME280;25088;43.238;23.110;2022-08-16T07:22:47;95929.44;;;33.78;38.11
39363;BME280;25088;43.238;23.110;2022-08-16T07:25:14;95927.63;;;33.94;36.59
39363;BME280;25088;43.238;23.110;2022-08-16T07:27:40;95922.56;;;33.79;36.77
39363;BME280;25088;43.238;23.110;2022-08-16T07:30:08;95920.66;;;34.33;36.72
39363;BME280;25088;43.238;23.110;2022-08-16T07:32:35;95933.31;;;34.56;36.95
39363;BME280;25088;43.238;23.110;2022-08-16T07:35:03;95924.75;;;34.59;35.24
39363;BME280;25088;43.238;23.110;2022-08-16T07:37:29;95932.63;;;35.02;35.26
39363;BME280;25088;43.238;23.110;2022-08-16T07:39:55;95929.56;;;35.16;35.08
39363;BME280;25088;43.238;23.110;2022-08-16T07:42:20;95934.84;;;35.38;34.79
39363;BME280;25088;43.238;23.110;2022-08-16T07:44:46;95935.44;;;35.53;35.33
39363;BME280;25088;43.238;23.110;2022-08-16T07:47:12;95939.09;;;35.93;33.74
39363;BME280;25088;43.238;23.110;2022-08-16T07:49:38;95941.19;;;35.69;33.98
39363;BME280;25088;43.238;23.110;2022-08-16T07:52:03;95932.16;;;35.74;32.85
39363;BME280;25088;43.238;23.110;2022-08-16T07:54:29;95936.06;;;36.04;32.96
39363;BME280;25088;43.238;23.110;2022-08-16T07:56:54;95927.47;;;36.07;31.93
39363;BME280;25088;43.238;23.110;2022-08-16T07:59:20;95939.63;;;36.28;32.86
39363;BME280;25088;43.238;23.110;2022-08-16T08:01:45;95940.78;;;36.50;31.17
39363;BME280;25088;43.238;23.110;2022-08-16T08:04:11;95933.44;;;36.69;31.25
39363;BME280;25088;43.238;23.110;2022-08-16T08:06:39;95934.19;;;36.89;30.49
39363;BME280;25088;43.238;23.110;2022-08-16T08:09:05;95945.69;;;37.02;31.23
39363;BME280;25088;43.238;23.110;2022-08-16T08:11:31;95936.13;;;37.74;29.00
39363;BME280;25088;43.238;23.110;2022-08-16T08:13:58;95926.19;;;37.49;29.78
39363;BME280;25088;43.238;23.110;2022-08-16T08:16:25;95943.75;;;37.15;29.04
39363;BME280;25088;43.238;23.110;2022-08-16T08:18:51;95938.94;;;37.12;28.86
39363;BME280;25088;43.238;23.110;2022-08-16T08:21:19;95946.31;;;37.26;29.08
39363;BME280;25088;43.238;23.110;2022-08-16T08:26:57;95931.38;;;36.33;28.18
39363;BME280;25088;43.238;23.110;2022-08-16T08:29:24;95952.38;;;36.39;25.33
39363;BME280;25088;43.238;23.110;2022-08-16T08:31:50;95956.47;;;36.74;28.00
39363;BME280;25088;43.238;23.110;2022-08-16T08:34:16;95951.31;;;37.38;29.74
39363;BME280;25088;43.238;23.110;2022-08-16T08:36:42;95949.78;;;37.66;29.83
39363;BME280;25088;43.238;23.110;2022-08-16T08:39:08;95952.75;;;38.21;28.78
39363;BME280;25088;43.238;23.110;2022-08-16T08:41:33;95953.06;;;38.39;28.63
39363;BME280;25088;43.238;23.110;2022-08-16T08:43:58;95949.91;;;38.21;28.31
39363;BME280;25088;43.238;23.110;2022-08-16T08:46:25;95954.91;;;37.88;28.99
39363;BME280;25088;43.238;23.110;2022-08-16T08:48:53;95972.06;;;37.55;29.25
39363;BME280;25088;43.238;23.110;2022-08-16T08:51:19;95963.25;;;36.05;29.68
39363;BME280;25088;43.238;23.110;2022-08-16T08:53:45;95972.94;;;35.17;31.50
39363;BME280;25088;43.238;23.110;2022-08-16T08:56:11;95978.06;;;35.49;31.28
39363;BME280;25088;43.238;23.110;2022-08-16T08:58:38;95958.28;;;36.09;31.32
39363;BME280;25088;43.238;23.110;2022-08-16T09:01:05;95970.50;;;37.34;29.18
39363;BME280;25088;43.238;23.110;2022-08-16T09:03:34;95972.72;;;36.18;29.46
39363;BME280;25088;43.238;23.110;2022-08-16T09:06:01;95978.59;;;35.17;30.44
39363;BME280;25088;43.238;23.110;2022-08-16T09:08:27;95979.94;;;36.22;30.43
39363;BME280;25088;43.238;23.110;2022-08-16T09:10:55;95978.25;;;37.34;28.06
39363;BME280;25088;43.238;23.110;2022-08-16T09:13:22;95983.09;;;38.27;27.74
39363;BME280;25088;43.238;23.110;2022-08-16T09:15:50;95966.03;;;39.33;26.67
39363;BME280;25088;43.238;23.110;2022-08-16T09:18:16;95977.78;;;39.10;26.18
39363;BME280;25088;43.238;23.110;2022-08-16T09:20:45;95975.94;;;39.03;25.81
39363;BME280;25088;43.238;23.110;2022-08-16T09:23:11;95970.78;;;40.09;24.92
39363;BME280;25088;43.238;23.110;2022-08-16T09:25:37;95954.41;;;40.31;24.18
39363;BME280;25088;43.238;23.110;2022-08-16T09:28:03;95980.03;;;40.57;23.58
39363;BME280;25088;43.238;23.110;2022-08-16T09:30:29;95981.63;;;40.14;23.53
39363;BME280;25088;43.238;23.110;2022-08-16T09:32:55;95980.69;;;40.92;23.54
39363;BME280;25088;43.238;23.110;2022-08-16T09:35:21;95983.44;;;39.73;25.42
39363;BME280;25088;43.238;23.110;2022-08-16T09:37:47;95986.91;;;40.91;25.82
39363;BME280;25088;43.238;23.110;2022-08-16T09:40:13;95981.22;;;40.25;26.74
39363;BME280;25088;43.238;23.110;2022-08-16T09:42:39;95991.28;;;41.04;24.51
39363;BME280;25088;43.238;23.110;2022-08-16T09:45:06;95995.25;;;40.98;25.30
39363;BME280;25088;43.238;23.110;2022-08-16T09:47:34;95990.19;;;41.11;24.05
39363;BME280;25088;43.238;23.110;2022-08-16T09:50:08;95987.56;;;40.64;23.41
39363;BME280;25088;43.238;23.110;2022-08-16T09:52:34;95990.78;;;40.75;24.00
39363;BME280;25088;43.238;23.110;2022-08-16T09:55:07;95981.28;;;41.49;23.12
39363;BME280;25088;43.238;23.110;2022-08-16T09:57:34;95976.06;;;40.54;23.91
39363;BME280;25088;43.238;23.110;2022-08-16T09:59:59;95981.28;;;41.09;22.94
39363;BME280;25088;43.238;23.110;2022-08-16T10:02:26;95966.34;;;39.95;24.51
39363;BME280;25088;43.238;23.110;2022-08-16T10:04:52;95964.81;;;37.83;28.01
39363;BME280;25088;43.238;23.110;2022-08-16T10:07:18;95972.25;;;36.39;29.47
39363;BME280;25088;43.238;23.110;2022-08-16T10:09:44;95991.91;;;35.20;31.98
39363;BME280;25088;43.238;23.110;2022-08-16T10:12:09;95973.81;;;35.61;32.71
39363;BME280;25088;43.238;23.110;2022-08-16T10:14:54;95987.88;;;34.90;33.32
39363;BME280;25088;43.238;23.110;2022-08-16T10:17:19;95978.09;;;34.37;34.77
39363;BME280;25088;43.238;23.110;2022-08-16T10:19:46;95984.41;;;34.52;34.66
39363;BME280;25088;43.238;23.110;2022-08-16T10:22:12;95971.81;;;35.81;33.02
39363;BME280;25088;43.238;23.110;2022-08-16T10:24:39;95983.00;;;36.12;33.08
39363;BME280;25088;43.238;23.110;2022-08-16T10:27:05;95983.75;;;37.08;32.34
39363;BME280;25088;43.238;23.110;2022-08-16T10:29:31;95976.38;;;36.18;31.48
39363;BME280;25088;43.238;23.110;2022-08-16T10:31:56;95974.47;;;35.21;32.93
39363;BME280;25088;43.238;23.110;2022-08-16T10:34:23;95974.63;;;35.11;32.74
39363;BME280;25088;43.238;23.110;2022-08-16T10:36:49;95959.19;;;36.26;32.28
39363;BME280;25088;43.238;23.110;2022-08-16T10:39:14;95960.00;;;36.98;31.08
39363;BME280;25088;43.238;23.110;2022-08-16T10:41:40;95949.44;;;36.99;31.28
39363;BME280;25088;43.238;23.110;2022-08-16T10:44:05;95970.31;;;35.96;32.22
39363;BME280;25088;43.238;23.110;2022-08-16T10:46:31;95977.81;;;35.63;32.96
39363;BME280;25088;43.238;23.110;2022-08-16T10:48:58;95974.09;;;37.06;31.54
39363;BME280;25088;43.238;23.110;2022-08-16T10:51:24;95977.00;;;37.18;31.14
39363;BME280;25088;43.238;23.110;2022-08-16T10:53:49;95983.06;;;38.15;29.86
39363;BME280;25088;43.238;23.110;2022-08-16T10:56:15;95969.94;;;38.05;28.99
39363;BME280;25088;43.238;23.110;2022-08-16T10:58:41;95966.72;;;36.72;30.02
39363;BME280;25088;43.238;23.110;2022-08-16T11:01:10;95970.41;;;38.16;28.98
39363;BME280;25088;43.238;23.110;2022-08-16T11:03:36;95975.38;;;39.08;28.90
39363;BME280;25088;43.238;23.110;2022-08-16T11:06:05;95979.59;;;37.62;28.28
39363;BME280;25088;43.238;23.110;2022-08-16T11:08:31;95988.91;;;36.61;29.36
39363;BME280;25088;43.238;23.110;2022-08-16T11:10:57;95984.56;;;35.93;30.58
39363;BME280;25088;43.238;23.110;2022-08-16T11:13:25;95975.91;;;36.60;30.94
39363;BME280;25088;43.238;23.110;2022-08-16T11:15:51;95970.44;;;37.54;30.34
39363;BME280;25088;43.238;23.110;2022-08-16T11:18:17;95969.66;;;36.85;29.98
39363;BME280;25088;43.238;23.110;2022-08-16T11:20:44;95941.28;;;35.42;31.81
39363;BME280;25088;43.238;23.110;2022-08-16T11:23:12;95982.25;;;34.60;33.47
39363;BME280;25088;43.238;23.110;2022-08-16T11:25:38;95966.00;;;34.64;33.93
39363;BME280;25088;43.238;23.110;2022-08-16T11:28:05;95971.75;;;37.00;30.40
39363;BME280;25088;43.238;23.110;2022-08-16T11:30:31;95964.72;;;38.58;28.75
39363;BME280;25088;43.238;23.110;2022-08-16T11:32:58;95959.88;;;38.96;27.98
39363;BME280;25088;43.238;23.110;2022-08-16T11:35:27;95962.94;;;39.27;26.93
39363;BME280;25088;43.238;23.110;2022-08-16T11:38:05;95974.81;;;38.33;28.59
39363;BME280;25088;43.238;23.110;2022-08-16T11:40:36;95969.22;;;39.10;26.75
39363;BME280;25088;43.238;23.110;2022-08-16T11:43:03;95956.88;;;39.64;26.04
39363;BME280;25088;43.238;23.110;2022-08-16T11:45:29;95961.59;;;39.19;26.42
39363;BME280;25088;43.238;23.110;2022-08-16T11:47:55;95959.91;;;37.84;27.86
39363;BME280;25088;43.238;23.110;2022-08-16T11:50:21;95962.78;;;37.02;29.51
39363;BME280;25088;43.238;23.110;2022-08-16T11:52:48;95938.97;;;37.74;29.42
39363;BME280;25088;43.238;23.110;2022-08-16T11:55:14;95957.94;;;38.81;27.51
39363;BME280;25088;43.238;23.110;2022-08-16T11:57:39;95949.50;;;40.10;25.95
39363;BME280;25088;43.238;23.110;2022-08-16T12:00:09;95952.31;;;41.56;24.34
39363;BME280;25088;43.238;23.110;2022-08-16T12:02:36;95933.28;;;41.31;24.80
39363;BME280;25088;43.238;23.110;2022-08-16T12:05:02;95936.16;;;41.31;25.44
39363;BME280;25088;43.238;23.110;2022-08-16T12:07:28;95933.59;;;41.92;23.42
39363;BME280;25088;43.238;23.110;2022-08-16T12:09:53;95934.06;;;42.09;24.02
39363;BME280;25088;43.238;23.110;2022-08-16T12:12:20;95952.41;;;42.30;20.27
39363;BME280;25088;43.238;23.110;2022-08-16T12:14:46;95952.56;;;41.99;19.81
39363;BME280;25088;43.238;23.110;2022-08-16T12:17:11;95934.38;;;42.11;19.00
39363;BME280;25088;43.238;23.110;2022-08-16T12:19:38;95940.41;;;42.68;18.95
39363;BME280;25088;43.238;23.110;2022-08-16T12:22:05;95935.50;;;40.78;20.20
39363;BME280;25088;43.238;23.110;2022-08-16T12:24:31;95929.59;;;40.81;20.31
39363;BME280;25088;43.238;23.110;2022-08-16T12:26:57;95936.22;;;39.34;21.00
39363;BME280;25088;43.238;23.110;2022-08-16T12:29:23;95942.81;;;38.67;21.72
39363;BME280;25088;43.238;23.110;2022-08-16T12:31:48;95945.22;;;38.56;21.46
39363;BME280;25088;43.238;23.110;2022-08-16T12:34:15;95919.56;;;38.27;22.38
39363;BME280;25088;43.238;23.110;2022-08-16T12:36:40;95936.84;;;38.36;22.41
39363;BME280;25088;43.238;23.110;2022-08-16T12:39:06;95935.78;;;37.72;22.29
39363;BME280;25088;43.238;23.110;2022-08-16T12:41:33;95935.75;;;37.26;22.37
39363;BME280;25088;43.238;23.110;2022-08-16T12:43:59;95919.28;;;37.18;23.46
39363;BME280;25088;43.238;23.110;2022-08-16T12:46:27;95931.72;;;37.57;22.68
39363;BME280;25088;43.238;23.110;2022-08-16T12:48:53;95924.38;;;37.72;23.11